sensor_id;sensor_type;location;lat;lon;timestamp;pressure;altitude;pressure_sealevel;temperature;humidity
11041;BME280;5573;49.592;8.662;2023-02-28T00:01:07;100834.16;;;-0.31;77.41
11041;BME280;5573;49.592;8.662;2023-02-28T00:03:35;100832.78;;;-0.29;78.58
11041;BME280;5573;49.592;8.662;2023-02-28T00:06:03;100813.16;;;-0.45;76.28
11041;BME280;5573;49.592;8.662;2023-02-28T00:08:32;100842.72;;;-0.24;78.07
11041;BME280;5573;49.592;8.662;2023-02-28T00:11:01;100827.13;;;-0.03;73.91
11041;BME280;5573;49.592;8.662;2023-02-28T00:13:30;100840.56;;;0.07;75.83
11041;BME280;5573;49.592;8.662;2023-02-28T00:15:59;100833.00;;;0.04;72.86
11041;BME280;5573;49.592;8.662;2023-02-28T00:18:27;100839.41;;;0.13;74.64
11041;BME280;5573;49.592;8.662;2023-02-28T00:20:57;100805.59;;;-0.13;74.34
11041;BME280;5573;49.592;8.662;2023-02-28T00:23:25;100836.56;;;-0.01;72.98
11041;BME280;5573;49.592;8.662;2023-02-28T00:25:55;100835.75;;;-0.01;73.53
11041;BME280;5573;49.592;8.662;2023-02-28T00:28:23;100833.13;;;-0.06;73.98
11041;BME280;5573;49.592;8.662;2023-02-28T00:30:51;100832.16;;;-0.21;76.00
11041;BME280;5573;49.592;8.662;2023-02-28T00:33:19;100833.56;;;-0.28;76.92
11041;BME280;5573;49.592;8.662;2023-02-28T00:35:46;100830.19;;;-0.44;78.05
11041;BME280;5573;49.592;8.662;2023-02-28T00:38:15;100822.69;;;-0.52;77.56
11041;BME280;5573;49.592;8.662;2023-02-28T00:40:43;100826.06;;;-0.36;77.53
11041;BME280;5573;49.592;8.662;2023-02-28T00:43:12;100827.78;;;-0.46;79.07
11041;BME280;5573;49.592;8.662;2023-02-28T00:45:39;100830.03;;;-0.58;81.91
11041;BME280;5573;49.592;8.662;2023-02-28T00:48:07;100831.78;;;-0.77;81.76
11041;BME280;5573;49.592;8.662;2023-02-28T00:50:34;100829.28;;;-0.69;80.43
11041;BME280;5573;49.592;8.662;2023-02-28T00:53:02;100841.00;;;-0.44;80.34
11041;BME280;5573;49.592;8.662;2023-02-28T00:55:30;100838.06;;;-0.53;81.36
11041;BME280;5573;49.592;8.662;2023-02-28T00:57:57;100835.75;;;-0.65;81.84
11041;BME280;5573;49.592;8.662;2023-02-28T01:00:27;100835.59;;;-0.84;82.81
11041;BME280;5573;49.592;8.662;2023-02-28T01:02:54;100831.72;;;-0.67;82.54
11041;BME280;5573;49.592;8.662;2023-02-28T01:05:22;100844.19;;;-0.76;83.59
11041;BME280;5573;49.592;8.662;2023-02-28T01:07:50;100834.50;;;-0.83;83.38
11041;BME280;5573;49.592;8.662;2023-02-28T01:10:18;100835.88;;;-0.85;83.41
11041;BME280;5573;49.592;8.662;2023-02-28T01:12:48;100830.91;;;-0.68;83.62
11041;BME280;5573;49.592;8.662;2023-02-28T01:15:16;100834.22;;;-0.81;84.85
11041;BME280;5573;49.592;8.662;2023-02-28T01:17:45;100825.91;;;-0.90;86.54
11041;BME280;5573;49.592;8.662;2023-02-28T01:20:13;100827.34;;;-1.03;88.10
11041;BME280;5573;49.592;8.662;2023-02-28T01:22:41;100826.06;;;-1.15;89.33
11041;BME280;5573;49.592;8.662;2023-02-28T01:25:09;100819.91;;;-1.26;89.08
11041;BME280;5573;49.592;8.662;2023-02-28T01:27:36;100825.84;;;-1.29;89.95
11041;BME280;5573;49.592;8.662;2023-02-28T01:30:07;100826.13;;;-1.26;91.10
11041;BME280;5573;49.592;8.662;2023-02-28T01:32:35;100818.81;;;-1.20;89.86
11041;BME280;5573;49.592;8.662;2023-02-28T01:35:05;100819.06;;;-1.21;89.40
11041;BME280;5573;49.592;8.662;2023-02-28T01:37:33;100814.28;;;-1.40;90.71
11041;BME280;5573;49.592;8.662;2023-02-28T01:40:00;100824.56;;;-1.37;92.06
11041;BME280;5573;49.592;8.662;2023-02-28T01:42:28;100821.25;;;-1.24;90.29
11041;BME280;5573;49.592;8.662;2023-02-28T01:45:14;100819.06;;;-1.21;90.04
11041;BME280;5573;49.592;8.662;2023-02-28T01:47:48;100817.63;;;-1.04;87.62
11041;BME280;5573;49.592;8.662;2023-02-28T01:50:21;100817.97;;;-1.20;89.84
11041;BME280;5573;49.592;8.662;2023-02-28T01:52:51;100812.03;;;-1.17;89.15
11041;BME280;5573;49.592;8.662;2023-02-28T01:55:24;100812.28;;;-1.14;89.93
11041;BME280;5573;49.592;8.662;2023-02-28T01:57:59;100812.59;;;-1.20;90.66
11041;BME280;5573;49.592;8.662;2023-02-28T02:00:30;100811.34;;;-1.38;94.03
11041;BME280;5573;49.592;8.662;2023-02-28T02:03:00;100817.00;;;-1.35;93.86
11041;BME280;5573;49.592;8.662;2023-02-28T02:05:32;100814.28;;;-1.35;92.62
11041;BME280;5573;49.592;8.662;2023-02-28T02:08:03;100800.78;;;-1.35;93.61
11041;BME280;5573;49.592;8.662;2023-02-28T02:10:33;100794.56;;;-1.35;91.96
11041;BME280;5573;49.592;8.662;2023-02-28T02:16:12;100796.63;;;-1.17;89.21
11041;BME280;5573;49.592;8.662;2023-02-28T02:18:46;100801.50;;;-1.14;89.36
11041;BME280;5573;49.592;8.662;2023-02-28T02:21:43;100790.75;;;-1.24;91.24
11041;BME280;5573;49.592;8.662;2023-02-28T02:27:37;100791.03;;;-1.26;92.34
11041;BME280;5573;49.592;8.662;2023-02-28T02:30:21;100790.75;;;-1.24;92.23
11041;BME280;5573;49.592;8.662;2023-02-28T02:33:13;100766.09;;;-1.67;93.43
11041;BME280;5573;49.592;8.662;2023-02-28T02:35:52;100801.81;;;-1.31;93.50
11041;BME280;5573;49.592;8.662;2023-02-28T02:38:31;100795.75;;;-1.52;94.53
11041;BME280;5573;49.592;8.662;2023-02-28T02:41:06;100787.69;;;-1.67;96.19
11041;BME280;5573;49.592;8.662;2023-02-28T02:43:39;100791.25;;;-1.77;98.22
11041;BME280;5573;49.592;8.662;2023-02-28T02:46:12;100797.94;;;-1.69;96.65
11041;BME280;5573;49.592;8.662;2023-02-28T02:48:45;100792.59;;;-1.74;95.91
11041;BME280;5573;49.592;8.662;2023-02-28T02:51:16;100792.00;;;-1.61;95.38
11041;BME280;5573;49.592;8.662;2023-02-28T02:53:49;100792.75;;;-1.50;94.84
11041;BME280;5573;49.592;8.662;2023-02-28T02:56:19;100807.06;;;-1.55;94.91
11041;BME280;5573;49.592;8.662;2023-02-28T02:58:50;100794.88;;;-1.42;94.27
11041;BME280;5573;49.592;8.662;2023-02-28T03:01:22;100797.19;;;-1.75;96.47
11041;BME280;5573;49.592;8.662;2023-02-28T03:03:57;100794.44;;;-1.70;95.52
11041;BME280;5573;49.592;8.662;2023-02-28T03:06:27;100800.28;;;-1.37;94.07
11041;BME280;5573;49.592;8.662;2023-02-28T03:08:54;100798.16;;;-1.50;95.24
11041;BME280;5573;49.592;8.662;2023-02-28T03:11:22;100799.16;;;-1.36;93.37
11041;BME280;5573;49.592;8.662;2023-02-28T03:14:23;100803.81;;;-1.47;93.95
11041;BME280;5573;49.592;8.662;2023-02-28T03:17:01;100783.59;;;-1.54;94.38
11041;BME280;5573;49.592;8.662;2023-02-28T03:19:45;100782.00;;;-1.60;94.33
11041;BME280;5573;49.592;8.662;2023-02-28T03:22:24;100791.94;;;-1.51;94.30
11041;BME280;5573;49.592;8.662;2023-02-28T03:25:07;100798.44;;;-1.57;95.72
11041;BME280;5573;49.592;8.662;2023-02-28T03:28:07;100789.34;;;-1.76;97.52
11041;BME280;5573;49.592;8.662;2023-02-28T03:30:42;100785.00;;;-1.67;96.59
11041;BME280;5573;49.592;8.662;2023-02-28T03:33:15;100759.44;;;-1.90;97.18
11041;BME280;5573;49.592;8.662;2023-02-28T03:35:45;100791.75;;;-1.70;98.27
11041;BME280;5573;49.592;8.662;2023-02-28T03:38:20;100792.31;;;-1.73;96.55
11041;BME280;5573;49.592;8.662;2023-02-28T03:40:53;100799.88;;;-1.75;97.01
11041;BME280;5573;49.592;8.662;2023-02-28T03:43:24;100790.38;;;-1.67;96.86
11041;BME280;5573;49.592;8.662;2023-02-28T03:45:55;100790.16;;;-1.76;96.66
11041;BME280;5573;49.592;8.662;2023-02-28T03:48:27;100786.84;;;-1.57;94.49
11041;BME280;5573;49.592;8.662;2023-02-28T03:50:59;100790.38;;;-1.67;95.17
11041;BME280;5573;49.592;8.662;2023-02-28T03:53:32;100793.34;;;-1.69;95.98
11041;BME280;5573;49.592;8.662;2023-02-28T03:56:03;100789.50;;;-1.47;94.77
11041;BME280;5573;49.592;8.662;2023-02-28T03:58:39;100786.28;;;-1.54;94.36
11041;BME280;5573;49.592;8.662;2023-02-28T04:01:12;100792.25;;;-1.57;95.56
11041;BME280;5573;49.592;8.662;2023-02-28T04:03:41;100788.81;;;-1.78;98.08
11041;BME280;5573;49.592;8.662;2023-02-28T04:06:15;100790.97;;;-1.80;97.54
11041;BME280;5573;49.592;8.662;2023-02-28T04:08:45;100766.44;;;-1.84;96.36
11041;BME280;5573;49.592;8.662;2023-02-28T04:11:20;100792.88;;;-1.81;96.92
11041;BME280;5573;49.592;8.662;2023-02-28T04:13:49;100799.34;;;-1.82;98.57
11041;BME280;5573;49.592;8.662;2023-02-28T04:16:16;100791.25;;;-1.82;97.98
11041;BME280;5573;49.592;8.662;2023-02-28T04:19:00;100799.59;;;-1.78;98.00
11041;BME280;5573;49.592;8.662;2023-02-28T04:21:30;100784.56;;;-2.00;98.74
11041;BME280;5573;49.592;8.662;2023-02-28T04:24:00;100752.53;;;-2.22;98.58
11041;BME280;5573;49.592;8.662;2023-02-28T04:26:29;100792.84;;;-1.76;97.22
11041;BME280;5573;49.592;8.662;2023-02-28T04:28:57;100787.19;;;-1.79;98.23
11041;BME280;5573;49.592;8.662;2023-02-28T04:31:25;100793.13;;;-1.72;96.28
11041;BME280;5573;49.592;8.662;2023-02-28T04:33:54;100792.63;;;-1.85;97.69
11041;BME280;5573;49.592;8.662;2023-02-28T04:36:21;100796.13;;;-1.94;99.46
11041;BME280;5573;49.592;8.662;2023-02-28T04:38:49;100789.41;;;-2.07;99.70
11041;BME280;5573;49.592;8.662;2023-02-28T04:41:18;100789.72;;;-2.09;100.00
11041;BME280;5573;49.592;8.662;2023-02-28T04:43:46;100789.19;;;-2.11;100.00
11041;BME280;5573;49.592;8.662;2023-02-28T04:46:14;100793.22;;;-2.13;100.00
11041;BME280;5573;49.592;8.662;2023-02-28T04:48:42;100790.81;;;-2.30;100.00
11041;BME280;5573;49.592;8.662;2023-02-28T04:51:11;100790.81;;;-2.30;100.00
11041;BME280;5573;49.592;8.662;2023-02-28T04:53:40;100781.94;;;-2.26;100.00
11041;BME280;5573;49.592;8.662;2023-02-28T04:56:11;100782.19;;;-2.27;100.00
11041;BME280;5573;49.592;8.662;2023-02-28T04:58:41;100785.19;;;-2.44;100.00
11041;BME280;5573;49.592;8.662;2023-02-28T05:01:17;100795.13;;;-2.29;100.00
11041;BME280;5573;49.592;8.662;2023-02-28T05:03:45;100792.16;;;-2.33;100.00
11041;BME280;5573;49.592;8.662;2023-02-28T05:06:14;100794.84;;;-2.33;100.00
11041;BME280;5573;49.592;8.662;2023-02-28T05:08:42;100796.47;;;-2.27;100.00
11041;BME280;5573;49.592;8.662;2023-02-28T05:11:15;100795.66;;;-2.22;100.00
11041;BME280;5573;49.592;8.662;2023-02-28T05:13:45;100796.97;;;-2.09;100.00
11041;BME280;5573;49.592;8.662;2023-02-28T05:16:12;100801.50;;;-1.79;99.83
11041;BME280;5573;49.592;8.662;2023-02-28T05:18:40;100800.69;;;-1.74;98.46
11041;BME280;5573;49.592;8.662;2023-02-28T05:21:23;100801.41;;;-1.58;98.48
11041;BME280;5573;49.592;8.662;2023-02-28T05:23:52;100806.00;;;-1.59;95.89
11041;BME280;5573;49.592;8.662;2023-02-28T05:26:20;100809.47;;;-1.43;96.04
11041;BME280;5573;49.592;8.662;2023-02-28T05:28:49;100797.13;;;-1.65;96.52
11041;BME280;5573;49.592;8.662;2023-02-28T05:31:17;100807.56;;;-1.48;95.49
11041;BME280;5573;49.592;8.662;2023-02-28T05:33:45;100787.44;;;-1.66;97.80
11041;BME280;5573;49.592;8.662;2023-02-28T05:36:13;100805.72;;;-1.52;98.20
11041;BME280;5573;49.592;8.662;2023-02-28T05:38:41;100812.22;;;-1.58;97.60
11041;BME280;5573;49.592;8.662;2023-02-28T05:41:10;100804.72;;;-1.82;99.49
11041;BME280;5573;49.592;8.662;2023-02-28T05:43:38;100809.31;;;-1.72;99.72
11041;BME280;5573;49.592;8.662;2023-02-28T05:46:09;100813.34;;;-1.70;99.43
11041;BME280;5573;49.592;8.662;2023-02-28T05:48:38;100809.53;;;-1.64;98.70
11041;BME280;5573;49.592;8.662;2023-02-28T05:51:07;100814.63;;;-1.57;98.51
11041;BME280;5573;49.592;8.662;2023-02-28T05:53:35;100815.47;;;-1.61;98.08
11041;BME280;5573;49.592;8.662;2023-02-28T05:56:04;100818.16;;;-1.61;97.58
11041;BME280;5573;49.592;8.662;2023-02-28T05:58:32;100792.59;;;-1.79;98.17
11041;BME280;5573;49.592;8.662;2023-02-28T06:01:20;100808.44;;;-1.57;97.56
11041;BME280;5573;49.592;8.662;2023-02-28T06:03:49;100806.84;;;-1.64;97.27
11041;BME280;5573;49.592;8.662;2023-02-28T06:06:17;100820.03;;;-1.57;98.46
11041;BME280;5573;49.592;8.662;2023-02-28T06:08:45;100822.19;;;-1.59;97.07
11041;BME280;5573;49.592;8.662;2023-02-28T06:11:12;100820.00;;;-1.47;96.05
11041;BME280;5573;49.592;8.662;2023-02-28T06:13:40;100824.63;;;-1.57;96.80
11041;BME280;5573;49.592;8.662;2023-02-28T06:16:09;100825.47;;;-1.67;99.01
11041;BME280;5573;49.592;8.662;2023-02-28T06:18:39;100826.34;;;-1.87;100.00
11041;BME280;5573;49.592;8.662;2023-02-28T06:21:06;100824.47;;;-2.02;100.00
11041;BME280;5573;49.592;8.662;2023-02-28T06:23:35;100826.06;;;-1.91;100.00
11041;BME280;5573;49.592;8.662;2023-02-28T06:26:03;100826.59;;;-1.89;100.00
11041;BME280;5573;49.592;8.662;2023-02-28T06:28:31;100829.25;;;-1.73;98.95
11041;BME280;5573;49.592;8.662;2023-02-28T06:30:59;100827.09;;;-1.66;98.45
11041;BME280;5573;49.592;8.662;2023-02-28T06:33:27;100830.31;;;-1.64;97.88
11041;BME280;5573;49.592;8.662;2023-02-28T06:35:55;100829.22;;;-1.63;98.47
11041;BME280;5573;49.592;8.662;2023-02-28T06:38:23;100829.75;;;-1.56;96.70
11041;BME280;5573;49.592;8.662;2023-02-28T06:40:54;100822.72;;;-1.57;96.95
11041;BME280;5573;49.592;8.662;2023-02-28T06:43:22;100839.44;;;-1.55;97.60
11041;BME280;5573;49.592;8.662;2023-02-28T06:45:50;100830.22;;;-1.38;94.98
11041;BME280;5573;49.592;8.662;2023-02-28T06:48:17;100831.19;;;-1.14;93.03
11041;BME280;5573;49.592;8.662;2023-02-28T06:50:45;100826.66;;;-1.24;94.55
11041;BME280;5573;49.592;8.662;2023-02-28T06:53:14;100827.34;;;-1.08;92.66
11041;BME280;5573;49.592;8.662;2023-02-28T06:55:42;100841.13;;;-1.04;92.26
11041;BME280;5573;49.592;8.662;2023-02-28T06:58:09;100841.84;;;-0.88;90.01
11041;BME280;5573;49.592;8.662;2023-02-28T07:00:46;100844.25;;;-0.87;89.35
11041;BME280;5573;49.592;8.662;2023-02-28T07:03:18;100845.53;;;-0.74;87.40
11041;BME280;5573;49.592;8.662;2023-02-28T07:05:46;100844.03;;;-0.90;88.75
11041;BME280;5573;49.592;8.662;2023-02-28T07:08:15;100849.44;;;-0.90;86.17
11041;BME280;5573;49.592;8.662;2023-02-28T07:10:42;100860.56;;;-0.57;87.47
11041;BME280;5573;49.592;8.662;2023-02-28T07:13:10;100863.50;;;-0.54;85.24
11041;BME280;5573;49.592;8.662;2023-02-28T07:15:38;100858.50;;;-0.36;84.25
11041;BME280;5573;49.592;8.662;2023-02-28T07:18:09;100866.72;;;-0.12;81.92
11041;BME280;5573;49.592;8.662;2023-02-28T07:20:37;100866.81;;;0.07;81.69
11041;BME280;5573;49.592;8.662;2023-02-28T07:23:05;100872.44;;;0.10;79.81
11041;BME280;5573;49.592;8.662;2023-02-28T07:25:34;100868.66;;;0.11;79.71
11041;BME280;5573;49.592;8.662;2023-02-28T07:28:01;100874.19;;;0.25;78.67
11041;BME280;5573;49.592;8.662;2023-02-28T07:30:29;100868.47;;;0.32;78.45
11041;BME280;5573;49.592;8.662;2023-02-28T07:32:57;100866.94;;;0.69;74.87
11041;BME280;5573;49.592;8.662;2023-02-28T07:35:24;100871.91;;;0.62;73.63
11041;BME280;5573;49.592;8.662;2023-02-28T07:37:52;100865.53;;;0.95;73.82
11041;BME280;5573;49.592;8.662;2023-02-28T07:40:20;100868.16;;;1.00;71.14
11041;BME280;5573;49.592;8.662;2023-02-28T07:42:49;100869.19;;;1.05;71.35
11041;BME280;5573;49.592;8.662;2023-02-28T07:45:17;100870.13;;;0.95;71.16
11041;BME280;5573;49.592;8.662;2023-02-28T07:47:45;100874.72;;;1.18;69.33
11041;BME280;5573;49.592;8.662;2023-02-28T07:50:15;100876.59;;;0.99;73.12
11041;BME280;5573;49.592;8.662;2023-02-28T07:52:43;100883.38;;;1.20;68.67
11041;BME280;5573;49.592;8.662;2023-02-28T07:55:10;100871.03;;;1.47;68.94
11041;BME280;5573;49.592;8.662;2023-02-28T07:57:40;100881.88;;;1.28;67.29
11041;BME280;5573;49.592;8.662;2023-02-28T08:00:11;100872.94;;;1.47;67.81
11041;BME280;5573;49.592;8.662;2023-02-28T08:02:40;100868.28;;;1.14;67.73
11041;BME280;5573;49.592;8.662;2023-02-28T08:05:08;100877.81;;;1.31;67.63
11041;BME280;5573;49.592;8.662;2023-02-28T08:07:36;100872.88;;;1.14;67.52
11041;BME280;5573;49.592;8.662;2023-02-28T08:10:04;100875.88;;;1.12;68.09
11041;BME280;5573;49.592;8.662;2023-02-28T08:12:33;100893.34;;;1.44;69.60
11041;BME280;5573;49.592;8.662;2023-02-28T08:15:00;100880.34;;;1.60;65.82
11041;BME280;5573;49.592;8.662;2023-02-28T08:17:29;100886.28;;;1.43;65.33
11041;BME280;5573;49.592;8.662;2023-02-28T08:20:00;100880.56;;;1.45;67.00
11041;BME280;5573;49.592;8.662;2023-02-28T08:22:28;100880.50;;;1.69;66.85
11041;BME280;5573;49.592;8.662;2023-02-28T08:24:56;100877.94;;;1.39;64.56
11041;BME280;5573;49.592;8.662;2023-02-28T08:27:23;100875.00;;;1.55;64.44
11041;BME280;5573;49.592;8.662;2023-02-28T08:29:51;100877.19;;;1.72;65.22
11041;BME280;5573;49.592;8.662;2023-02-28T08:32:19;100877.47;;;1.70;63.90
11041;BME280;5573;49.592;8.662;2023-02-28T08:34:57;100868.59;;;1.83;63.51
11041;BME280;5573;49.592;8.662;2023-02-28T08:37:24;100872.63;;;2.00;62.86
11041;BME280;5573;49.592;8.662;2023-02-28T08:39:52;100869.88;;;2.33;63.21
11041;BME280;5573;49.592;8.662;2023-02-28T08:42:22;100874.09;;;2.11;61.50
11041;BME280;5573;49.592;8.662;2023-02-28T08:44:50;100867.66;;;2.21;62.07
11041;BME280;5573;49.592;8.662;2023-02-28T08:47:18;100857.78;;;2.11;60.61
11041;BME280;5573;49.592;8.662;2023-02-28T08:49:45;100861.94;;;2.50;59.99
11041;BME280;5573;49.592;8.662;2023-02-28T08:52:14;100869.09;;;2.60;59.94
11041;BME280;5573;49.592;8.662;2023-02-28T08:54:42;100864.66;;;2.50;59.41
11041;BME280;5573;49.592;8.662;2023-02-28T08:57:10;100869.09;;;2.32;59.78
11041;BME280;5573;49.592;8.662;2023-02-28T08:59:38;100870.09;;;2.64;59.11
11041;BME280;5573;49.592;8.662;2023-02-28T09:02:08;100832.69;;;2.47;58.65
11041;BME280;5573;49.592;8.662;2023-02-28T09:04:36;100860.25;;;2.54;58.08
11041;BME280;5573;49.592;8.662;2023-02-28T09:07:03;100868.00;;;2.75;58.91
11041;BME280;5573;49.592;8.662;2023-02-28T09:09:32;100864.44;;;2.88;56.71
11041;BME280;5573;49.592;8.662;2023-02-28T09:12:00;100868.06;;;2.70;57.36
11041;BME280;5573;49.592;8.662;2023-02-28T09:14:28;100849.84;;;2.84;56.84
11041;BME280;5573;49.592;8.662;2023-02-28T09:16:56;100872.22;;;2.67;57.23
11041;BME280;5573;49.592;8.662;2023-02-28T09:19:24;100867.66;;;2.90;56.67
11041;BME280;5573;49.592;8.662;2023-02-28T09:21:51;100865.97;;;2.80;57.20
11041;BME280;5573;49.592;8.662;2023-02-28T09:24:19;100861.63;;;2.93;55.05
11041;BME280;5573;49.592;8.662;2023-02-28T09:26:48;100861.94;;;2.92;56.00
11041;BME280;5573;49.592;8.662;2023-02-28T09:29:30;100856.09;;;2.84;55.36
11041;BME280;5573;49.592;8.662;2023-02-28T09:31:57;100870.75;;;3.11;55.70
11041;BME280;5573;49.592;8.662;2023-02-28T09:34:26;100864.03;;;3.09;54.69
11041;BME280;5573;49.592;8.662;2023-02-28T09:36:54;100869.47;;;2.95;54.80
11041;BME280;5573;49.592;8.662;2023-02-28T09:39:23;100871.19;;;3.41;55.79
11041;BME280;5573;49.592;8.662;2023-02-28T09:41:55;100864.16;;;3.26;55.00
11041;BME280;5573;49.592;8.662;2023-02-28T09:44:29;100867.63;;;3.18;54.66
11041;BME280;5573;49.592;8.662;2023-02-28T09:47:01;100858.63;;;3.54;55.56
11041;BME280;5573;49.592;8.662;2023-02-28T09:49:38;100855.00;;;3.58;53.62
11041;BME280;5573;49.592;8.662;2023-02-28T09:52:10;100861.13;;;3.86;52.56
11041;BME280;5573;49.592;8.662;2023-02-28T09:54:39;100854.38;;;3.84;53.27
11041;BME280;5573;49.592;8.662;2023-02-28T09:57:15;100862.88;;;4.14;52.10
11041;BME280;5573;49.592;8.662;2023-02-28T09:59:57;100862.28;;;4.25;52.23
11041;BME280;5573;49.592;8.662;2023-02-28T10:03:01;100849.84;;;3.79;53.29
11041;BME280;5573;49.592;8.662;2023-02-28T10:05:33;100842.75;;;3.70;52.82
11041;BME280;5573;49.592;8.662;2023-02-28T10:08:09;100856.97;;;3.89;52.32
11041;BME280;5573;49.592;8.662;2023-02-28T10:10:41;100855.78;;;3.81;53.05
11041;BME280;5573;49.592;8.662;2023-02-28T10:13:20;100854.47;;;4.01;53.38
11041;BME280;5573;49.592;8.662;2023-02-28T10:15:52;100859.44;;;3.99;52.03
11041;BME280;5573;49.592;8.662;2023-02-28T10:18:25;100858.75;;;3.94;53.06
11041;BME280;5573;49.592;8.662;2023-02-28T10:20:55;100864.81;;;4.53;52.96
11041;BME280;5573;49.592;8.662;2023-02-28T10:23:26;100866.50;;;4.80;52.20
11041;BME280;5573;49.592;8.662;2023-02-28T10:25:59;100867.94;;;4.78;50.30
11041;BME280;5573;49.592;8.662;2023-02-28T10:28:29;100859.81;;;4.95;51.43
11041;BME280;5573;49.592;8.662;2023-02-28T10:30:58;100872.31;;;4.96;51.03
11041;BME280;5573;49.592;8.662;2023-02-28T10:33:29;100869.13;;;4.45;50.61
11041;BME280;5573;49.592;8.662;2023-02-28T10:35:58;100852.38;;;3.98;51.53
11041;BME280;5573;49.592;8.662;2023-02-28T10:38:28;100864.44;;;4.06;51.94
11041;BME280;5573;49.592;8.662;2023-02-28T10:41:07;100856.75;;;4.08;51.63
11041;BME280;5573;49.592;8.662;2023-02-28T10:43:38;100860.69;;;3.93;52.12
11041;BME280;5573;49.592;8.662;2023-02-28T10:46:13;100866.31;;;4.28;51.25
11041;BME280;5573;49.592;8.662;2023-02-28T10:48:44;100865.84;;;4.66;51.29
11041;BME280;5573;49.592;8.662;2023-02-28T10:51:16;100860.00;;;5.07;50.97
11041;BME280;5573;49.592;8.662;2023-02-28T10:53:48;100861.53;;;4.74;50.42
11041;BME280;5573;49.592;8.662;2023-02-28T10:56:28;100830.03;;;4.50;51.21
11041;BME280;5573;49.592;8.662;2023-02-28T10:59:00;100864.63;;;4.41;51.30
11041;BME280;5573;49.592;8.662;2023-02-28T11:01:38;100857.25;;;4.41;51.20
11041;BME280;5573;49.592;8.662;2023-02-28T11:04:34;100853.72;;;4.41;50.90
11041;BME280;5573;49.592;8.662;2023-02-28T11:07:06;100859.75;;;4.78;51.98
11041;BME280;5573;49.592;8.662;2023-02-28T11:09:35;100852.72;;;4.77;50.51
11041;BME280;5573;49.592;8.662;2023-02-28T11:12:07;100862.31;;;4.74;50.80
11041;BME280;5573;49.592;8.662;2023-02-28T11:14:40;100849.38;;;4.40;51.29
11041;BME280;5573;49.592;8.662;2023-02-28T11:17:19;100858.94;;;4.68;49.63
11041;BME280;5573;49.592;8.662;2023-02-28T11:19:50;100855.53;;;4.54;49.91
11041;BME280;5573;49.592;8.662;2023-02-28T11:22:20;100859.06;;;4.63;51.00
11041;BME280;5573;49.592;8.662;2023-02-28T11:24:51;100857.31;;;4.67;51.37
11041;BME280;5573;49.592;8.662;2023-02-28T11:27:26;100855.97;;;5.05;52.03
11041;BME280;5573;49.592;8.662;2023-02-28T11:30:30;100850.78;;;4.77;49.90
11041;BME280;5573;49.592;8.662;2023-02-28T11:32:58;100851.25;;;4.71;50.64
11041;BME280;5573;49.592;8.662;2023-02-28T11:35:29;100838.31;;;4.85;50.13
11041;BME280;5573;49.592;8.662;2023-02-28T11:37:57;100849.09;;;5.16;49.53
11041;BME280;5573;49.592;8.662;2023-02-28T11:40:34;100851.13;;;4.93;50.78
11041;BME280;5573;49.592;8.662;2023-02-28T11:43:18;100834.34;;;5.26;47.86
11041;BME280;5573;49.592;8.662;2023-02-28T11:45:59;100838.03;;;5.21;48.27
11041;BME280;5573;49.592;8.662;2023-02-28T11:48:38;100840.94;;;5.42;49.14
11041;BME280;5573;49.592;8.662;2023-02-28T11:51:15;100832.75;;;5.42;48.24
11041;BME280;5573;49.592;8.662;2023-02-28T11:54:12;100836.91;;;5.31;47.99
11041;BME280;5573;49.592;8.662;2023-02-28T11:56:52;100824.38;;;5.56;47.97
11041;BME280;5573;49.592;8.662;2023-02-28T11:59:40;100833.34;;;5.74;48.53
11041;BME280;5573;49.592;8.662;2023-02-28T12:02:28;100820.00;;;5.73;48.66
11041;BME280;5573;49.592;8.662;2023-02-28T12:05:09;100811.66;;;5.95;47.56
11041;BME280;5573;49.592;8.662;2023-02-28T12:07:47;100831.44;;;5.66;47.80
11041;BME280;5573;49.592;8.662;2023-02-28T12:10:21;100829.47;;;5.75;48.85
11041;BME280;5573;49.592;8.662;2023-02-28T12:12:58;100829.63;;;5.79;47.23
11041;BME280;5573;49.592;8.662;2023-02-28T12:15:52;100824.94;;;6.14;48.22
11041;BME280;5573;49.592;8.662;2023-02-28T12:18:35;100822.06;;;6.02;47.05
11041;BME280;5573;49.592;8.662;2023-02-28T12:21:11;100823.91;;;6.27;48.36
11041;BME280;5573;49.592;8.662;2023-02-28T12:23:54;100814.63;;;6.11;47.32
11041;BME280;5573;49.592;8.662;2023-02-28T12:26:34;100822.75;;;6.37;47.54
11041;BME280;5573;49.592;8.662;2023-02-28T12:29:10;100822.69;;;6.07;46.61
11041;BME280;5573;49.592;8.662;2023-02-28T12:31:42;100814.03;;;5.88;47.51
11041;BME280;5573;49.592;8.662;2023-02-28T12:34:19;100821.88;;;6.07;47.74
11041;BME280;5573;49.592;8.662;2023-02-28T12:36:48;100825.88;;;6.18;47.33
11041;BME280;5573;49.592;8.662;2023-02-28T12:39:22;100817.38;;;6.11;46.56
11041;BME280;5573;49.592;8.662;2023-02-28T12:41:54;100822.47;;;6.21;46.57
11041;BME280;5573;49.592;8.662;2023-02-28T12:44:28;100815.56;;;6.24;47.62
11041;BME280;5573;49.592;8.662;2023-02-28T12:47:00;100805.56;;;6.37;45.78
11041;BME280;5573;49.592;8.662;2023-02-28T12:49:34;100805.63;;;6.19;46.93
11041;BME280;5573;49.592;8.662;2023-02-28T12:52:06;100808.78;;;6.30;47.38
11041;BME280;5573;49.592;8.662;2023-02-28T12:54:44;100814.72;;;6.32;45.91
11041;BME280;5573;49.592;8.662;2023-02-28T12:57:18;100809.69;;;6.04;47.38
11041;BME280;5573;49.592;8.662;2023-02-28T12:59:52;100809.22;;;6.02;46.57
11041;BME280;5573;49.592;8.662;2023-02-28T13:02:50;100812.22;;;6.18;46.11
11041;BME280;5573;49.592;8.662;2023-02-28T13:09:01;100814.41;;;6.63;45.57
11041;BME280;5573;49.592;8.662;2023-02-28T13:11:31;100806.81;;;6.69;45.46
11041;BME280;5573;49.592;8.662;2023-02-28T13:14:02;100821.63;;;6.68;44.94
11041;BME280;5573;49.592;8.662;2023-02-28T13:16:49;100814.00;;;6.53;44.96
11041;BME280;5573;49.592;8.662;2023-02-28T13:19:20;100764.22;;;6.38;44.09
11041;BME280;5573;49.592;8.662;2023-02-28T13:21:50;100815.13;;;6.81;45.86
11041;BME280;5573;49.592;8.662;2023-02-28T13:24:40;100805.00;;;7.03;45.18
11041;BME280;5573;49.592;8.662;2023-02-28T13:27:32;100808.56;;;6.44;45.89
11041;BME280;5573;49.592;8.662;2023-02-28T13:33:28;100804.84;;;6.48;45.77
11041;BME280;5573;49.592;8.662;2023-02-28T13:36:21;100806.34;;;6.37;45.29
11041;BME280;5573;49.592;8.662;2023-02-28T13:38:51;100809.34;;;6.74;45.97
11041;BME280;5573;49.592;8.662;2023-02-28T13:41:45;100808.06;;;6.12;46.36
11041;BME280;5573;49.592;8.662;2023-02-28T13:44:15;100805.47;;;6.16;46.60